sensor_id;sensor_type;location;lat;lon;timestamp;P1;durP1;ratioP1;P2;durP2;ratioP2
68089;SDS011;54880;50.986;6.990;2023-07-20T00:00:57;9.48;;;3.28;;
68089;SDS011;54880;50.986;6.990;2023-07-20T00:03:23;8.53;;;3.23;;
68089;SDS011;54880;50.986;6.990;2023-07-20T00:05:50;7.45;;;3.10;;
68089;SDS011;54880;50.986;6.990;2023-07-20T00:08:16;11.80;;;3.40;;
68089;SDS011;54880;50.986;6.990;2023-07-20T00:10:41;9.20;;;3.30;;
68089;SDS011;54880;50.986;6.990;2023-07-20T00:13:07;11.70;;;3.70;;
68089;SDS011;54880;50.986;6.990;2023-07-20T00:15:32;11.27;;;3.50;;
68089;SDS011;54880;50.986;6.990;2023-07-20T00:17:57;11.37;;;3.30;;
68089;SDS011;54880;50.986;6.990;2023-07-20T00:20:23;10.73;;;3.20;;
68089;SDS011;54880;50.986;6.990;2023-07-20T00:22:49;11.85;;;3.40;;
68089;SDS011;54880;50.986;6.990;2023-07-20T00:25:16;8.07;;;3.10;;
68089;SDS011;54880;50.986;6.990;2023-07-20T00:27:41;10.02;;;3.25;;
68089;SDS011;54880;50.986;6.990;2023-07-20T00:30:06;13.80;;;3.58;;
68089;SDS011;54880;50.986;6.990;2023-07-20T00:32:32;9.00;;;3.22;;
68089;SDS011;54880;50.986;6.990;2023-07-20T00:34:57;7.20;;;2.93;;
68089;SDS011;54880;50.986;6.990;2023-07-20T00:37:22;13.30;;;3.17;;
68089;SDS011;54880;50.986;6.990;2023-07-20T00:39:48;7.97;;;3.13;;
68089;SDS011;54880;50.986;6.990;2023-07-20T00:42:13;7.90;;;3.20;;
68089;SDS011;54880;50.986;6.990;2023-07-20T00:44:38;9.43;;;3.27;;
68089;SDS011;54880;50.986;6.990;2023-07-20T00:47:04;8.13;;;2.87;;
68089;SDS011;54880;50.986;6.990;2023-07-20T00:49:31;10.23;;;3.20;;
68089;SDS011;54880;50.986;6.990;2023-07-20T00:51:58;7.40;;;3.30;;
68089;SDS011;54880;50.986;6.990;2023-07-20T00:54:24;10.27;;;3.20;;
68089;SDS011;54880;50.986;6.990;2023-07-20T00:56:49;8.37;;;3.07;;
68089;SDS011;54880;50.986;6.990;2023-07-20T00:59:15;6.85;;;2.97;;
68089;SDS011;54880;50.986;6.990;2023-07-20T01:01:40;7.27;;;3.00;;
68089;SDS011;54880;50.986;6.990;2023-07-20T01:04:06;8.83;;;3.10;;
68089;SDS011;54880;50.986;6.990;2023-07-20T01:09:08;8.87;;;2.93;;
68089;SDS011;54880;50.986;6.990;2023-07-20T01:14:17;11.18;;;2.90;;
68089;SDS011;54880;50.986;6.990;2023-07-20T01:16:42;10.97;;;3.40;;
68089;SDS011;54880;50.986;6.990;2023-07-20T01:19:08;9.53;;;3.30;;
68089;SDS011;54880;50.986;6.990;2023-07-20T01:21:35;9.80;;;3.10;;
68089;SDS011;54880;50.986;6.990;2023-07-20T01:31:34;8.15;;;3.10;;
68089;SDS011;54880;50.986;6.990;2023-07-20T01:34:00;8.55;;;3.30;;
68089;SDS011;54880;50.986;6.990;2023-07-20T01:36:28;9.87;;;3.27;;
68089;SDS011;54880;50.986;6.990;2023-07-20T01:38:54;7.78;;;2.85;;
68089;SDS011;54880;50.986;6.990;2023-07-20T01:41:19;7.73;;;3.47;;
68089;SDS011;54880;50.986;6.990;2023-07-20T01:43:45;7.70;;;2.83;;
68089;SDS011;54880;50.986;6.990;2023-07-20T01:46:10;9.53;;;3.10;;
68089;SDS011;54880;50.986;6.990;2023-07-20T01:48:36;8.20;;;3.40;;
68089;SDS011;54880;50.986;6.990;2023-07-20T01:51:01;7.90;;;3.10;;
68089;SDS011;54880;50.986;6.990;2023-07-20T01:53:26;8.90;;;3.30;;
68089;SDS011;54880;50.986;6.990;2023-07-20T01:55:52;10.45;;;3.20;;
68089;SDS011;54880;50.986;6.990;2023-07-20T01:58:18;9.23;;;2.90;;
68089;SDS011;54880;50.986;6.990;2023-07-20T02:00:43;8.20;;;3.40;;
68089;SDS011;54880;50.986;6.990;2023-07-20T02:03:08;6.97;;;3.05;;
68089;SDS011;54880;50.986;6.990;2023-07-20T02:05:34;8.83;;;2.83;;
68089;SDS011;54880;50.986;6.990;2023-07-20T02:07:59;9.33;;;3.27;;
68089;SDS011;54880;50.986;6.990;2023-07-20T02:10:24;11.30;;;3.40;;
68089;SDS011;54880;50.986;6.990;2023-07-20T02:12:49;7.67;;;2.80;;
68089;SDS011;54880;50.986;6.990;2023-07-20T02:15:15;6.53;;;2.50;;
68089;SDS011;54880;50.986;6.990;2023-07-20T02:17:42;7.30;;;2.87;;
68089;SDS011;54880;50.986;6.990;2023-07-20T02:20:07;8.50;;;2.80;;
68089;SDS011;54880;50.986;6.990;2023-07-20T02:22:44;10.23;;;3.42;;
68089;SDS011;54880;50.986;6.990;2023-07-20T02:25:09;8.47;;;2.87;;
68089;SDS011;54880;50.986;6.990;2023-07-20T02:27:35;8.47;;;2.80;;
68089;SDS011;54880;50.986;6.990;2023-07-20T02:30:00;8.83;;;3.13;;
68089;SDS011;54880;50.986;6.990;2023-07-20T02:32:26;10.07;;;3.10;;
68089;SDS011;54880;50.986;6.990;2023-07-20T02:34:51;10.05;;;3.17;;
68089;SDS011;54880;50.986;6.990;2023-07-20T02:37:16;8.75;;;2.92;;
68089;SDS011;54880;50.986;6.990;2023-07-20T02:39:42;10.93;;;2.90;;
68089;SDS011;54880;50.986;6.990;2023-07-20T02:42:07;12.20;;;3.50;;
68089;SDS011;54880;50.986;6.990;2023-07-20T02:44:33;7.78;;;3.20;;
68089;SDS011;54880;50.986;6.990;2023-07-20T02:46:59;7.57;;;2.93;;
68089;SDS011;54880;50.986;6.990;2023-07-20T02:49:24;7.00;;;3.20;;
68089;SDS011;54880;50.986;6.990;2023-07-20T02:51:49;10.47;;;3.63;;
68089;SDS011;54880;50.986;6.990;2023-07-20T02:54:15;8.97;;;3.40;;
68089;SDS011;54880;50.986;6.990;2023-07-20T02:56:40;12.30;;;3.50;;
68089;SDS011;54880;50.986;6.990;2023-07-20T02:59:05;9.23;;;3.67;;
68089;SDS011;54880;50.986;6.990;2023-07-20T03:01:31;8.60;;;3.80;;
68089;SDS011;54880;50.986;6.990;2023-07-20T03:03:56;9.43;;;3.45;;
68089;SDS011;54880;50.986;6.990;2023-07-20T03:06:21;9.33;;;3.60;;
68089;SDS011;54880;50.986;6.990;2023-07-20T03:08:47;8.60;;;3.40;;
68089;SDS011;54880;50.986;6.990;2023-07-20T03:11:16;8.43;;;3.30;;
68089;SDS011;54880;50.986;6.990;2023-07-20T03:13:42;9.40;;;3.67;;
68089;SDS011;54880;50.986;6.990;2023-07-20T03:16:08;8.52;;;3.50;;
68089;SDS011;54880;50.986;6.990;2023-07-20T03:18:39;9.40;;;3.47;;
68089;SDS011;54880;50.986;6.990;2023-07-20T03:21:07;9.02;;;3.60;;
68089;SDS011;54880;50.986;6.990;2023-07-20T03:23:32;8.77;;;3.20;;
68089;SDS011;54880;50.986;6.990;2023-07-20T03:25:58;10.03;;;3.40;;
68089;SDS011;54880;50.986;6.990;2023-07-20T03:28:23;11.45;;;3.03;;
68089;SDS011;54880;50.986;6.990;2023-07-20T03:30:55;7.77;;;3.27;;
68089;SDS011;54880;50.986;6.990;2023-07-20T03:33:30;9.15;;;3.60;;
68089;SDS011;54880;50.986;6.990;2023-07-20T03:35:57;9.70;;;2.80;;
68089;SDS011;54880;50.986;6.990;2023-07-20T03:38:24;7.07;;;3.20;;
68089;SDS011;54880;50.986;6.990;2023-07-20T03:40:50;9.77;;;3.08;;
68089;SDS011;54880;50.986;6.990;2023-07-20T03:43:16;9.80;;;3.72;;
68089;SDS011;54880;50.986;6.990;2023-07-20T03:45:42;8.53;;;3.23;;
68089;SDS011;54880;50.986;6.990;2023-07-20T03:48:07;11.87;;;3.50;;
68089;SDS011;54880;50.986;6.990;2023-07-20T03:50:32;9.87;;;3.30;;
68089;SDS011;54880;50.986;6.990;2023-07-20T03:52:58;8.73;;;3.27;;
68089;SDS011;54880;50.986;6.990;2023-07-20T03:55:23;7.17;;;2.93;;
68089;SDS011;54880;50.986;6.990;2023-07-20T03:57:48;9.53;;;3.80;;
68089;SDS011;54880;50.986;6.990;2023-07-20T04:00:16;9.30;;;2.95;;
68089;SDS011;54880;50.986;6.990;2023-07-20T04:02:41;9.77;;;3.60;;
68089;SDS011;54880;50.986;6.990;2023-07-20T04:05:06;7.45;;;3.38;;
68089;SDS011;54880;50.986;6.990;2023-07-20T04:07:32;8.60;;;3.40;;
68089;SDS011;54880;50.986;6.990;2023-07-20T04:09:57;8.33;;;2.93;;
68089;SDS011;54880;50.986;6.990;2023-07-20T04:12:22;8.93;;;3.00;;
68089;SDS011;54880;50.986;6.990;2023-07-20T04:14:47;9.23;;;3.00;;
68089;SDS011;54880;50.986;6.990;2023-07-20T04:17:13;7.10;;;2.97;;
68089;SDS011;54880;50.986;6.990;2023-07-20T04:19:38;11.03;;;3.80;;
68089;SDS011;54880;50.986;6.990;2023-07-20T04:22:04;9.10;;;3.20;;
68089;SDS011;54880;50.986;6.990;2023-07-20T04:24:29;9.77;;;3.30;;
68089;SDS011;54880;50.986;6.990;2023-07-20T04:26:54;8.37;;;3.10;;
68089;SDS011;54880;50.986;6.990;2023-07-20T04:29:19;12.87;;;3.37;;
68089;SDS011;54880;50.986;6.990;2023-07-20T04:31:45;10.53;;;3.23;;
68089;SDS011;54880;50.986;6.990;2023-07-20T04:34:10;9.95;;;3.50;;
68089;SDS011;54880;50.986;6.990;2023-07-20T04:36:36;9.60;;;3.67;;
68089;SDS011;54880;50.986;6.990;2023-07-20T04:39:02;11.43;;;3.50;;
68089;SDS011;54880;50.986;6.990;2023-07-20T04:41:34;7.93;;;3.65;;
68089;SDS011;54880;50.986;6.990;2023-07-20T04:43:59;10.97;;;3.43;;
68089;SDS011;54880;50.986;6.990;2023-07-20T04:46:27;11.27;;;3.92;;
68089;SDS011;54880;50.986;6.990;2023-07-20T04:48:53;12.53;;;3.40;;
68089;SDS011;54880;50.986;6.990;2023-07-20T04:51:18;10.50;;;3.97;;
68089;SDS011;54880;50.986;6.990;2023-07-20T04:53:47;11.95;;;4.28;;
68089;SDS011;54880;50.986;6.990;2023-07-20T04:56:12;10.60;;;3.67;;
68089;SDS011;54880;50.986;6.990;2023-07-20T04:58:38;9.13;;;3.40;;
68089;SDS011;54880;50.986;6.990;2023-07-20T05:01:03;8.87;;;3.43;;
68089;SDS011;54880;50.986;6.990;2023-07-20T05:03:29;9.88;;;3.50;;
68089;SDS011;54880;50.986;6.990;2023-07-20T05:05:54;11.03;;;3.43;;
68089;SDS011;54880;50.986;6.990;2023-07-20T05:08:20;13.90;;;4.03;;
68089;SDS011;54880;50.986;6.990;2023-07-20T05:10:47;11.15;;;3.90;;
68089;SDS011;54880;50.986;6.990;2023-07-20T05:13:13;9.02;;;3.65;;
68089;SDS011;54880;50.986;6.990;2023-07-20T05:15:38;9.80;;;3.73;;
68089;SDS011;54880;50.986;6.990;2023-07-20T05:18:05;14.15;;;4.63;;
68089;SDS011;54880;50.986;6.990;2023-07-20T05:20:30;12.17;;;4.63;;
68089;SDS011;54880;50.986;6.990;2023-07-20T05:22:57;8.80;;;3.88;;
68089;SDS011;54880;50.986;6.990;2023-07-20T05:25:22;14.57;;;4.50;;
68089;SDS011;54880;50.986;6.990;2023-07-20T05:27:47;11.57;;;5.10;;
68089;SDS011;54880;50.986;6.990;2023-07-20T05:30:13;13.30;;;5.00;;
68089;SDS011;54880;50.986;6.990;2023-07-20T05:32:38;12.67;;;4.83;;
68089;SDS011;54880;50.986;6.990;2023-07-20T05:35:03;10.70;;;4.40;;
68089;SDS011;54880;50.986;6.990;2023-07-20T05:37:29;13.60;;;5.20;;
68089;SDS011;54880;50.986;6.990;2023-07-20T05:39:54;13.40;;;5.00;;
68089;SDS011;54880;50.986;6.990;2023-07-20T05:42:20;12.82;;;4.60;;
68089;SDS011;54880;50.986;6.990;2023-07-20T05:44:45;15.30;;;5.25;;
68089;SDS011;54880;50.986;6.990;2023-07-20T05:47:12;10.68;;;4.88;;
68089;SDS011;54880;50.986;6.990;2023-07-20T05:49:37;15.83;;;5.90;;
68089;SDS011;54880;50.986;6.990;2023-07-20T05:52:02;17.03;;;5.97;;
68089;SDS011;54880;50.986;6.990;2023-07-20T05:54:28;16.58;;;5.97;;
68089;SDS011;54880;50.986;6.990;2023-07-20T05:56:53;12.10;;;5.13;;
68089;SDS011;54880;50.986;6.990;2023-07-20T05:59:19;12.27;;;5.13;;
68089;SDS011;54880;50.986;6.990;2023-07-20T06:01:45;13.27;;;5.10;;
68089;SDS011;54880;50.986;6.990;2023-07-20T06:04:10;13.32;;;5.22;;
68089;SDS011;54880;50.986;6.990;2023-07-20T06:06:35;13.53;;;5.37;;
68089;SDS011;54880;50.986;6.990;2023-07-20T06:09:01;12.97;;;5.70;;
68089;SDS011;54880;50.986;6.990;2023-07-20T06:11:30;13.45;;;6.35;;
68089;SDS011;54880;50.986;6.990;2023-07-20T06:13:56;14.30;;;5.57;;
68089;SDS011;54880;50.986;6.990;2023-07-20T06:16:21;14.90;;;5.83;;
68089;SDS011;54880;50.986;6.990;2023-07-20T06:18:46;13.83;;;6.07;;
68089;SDS011;54880;50.986;6.990;2023-07-20T06:21:11;13.35;;;6.22;;
68089;SDS011;54880;50.986;6.990;2023-07-20T06:23:37;12.75;;;6.70;;
68089;SDS011;54880;50.986;6.990;2023-07-20T06:26:02;12.10;;;5.40;;
68089;SDS011;54880;50.986;6.990;2023-07-20T06:28:27;10.73;;;5.63;;
68089;SDS011;54880;50.986;6.990;2023-07-20T06:30:58;10.77;;;5.57;;
68089;SDS011;54880;50.986;6.990;2023-07-20T06:33:23;15.37;;;6.70;;
68089;SDS011;54880;50.986;6.990;2023-07-20T06:35:48;14.98;;;5.93;;
68089;SDS011;54880;50.986;6.990;2023-07-20T06:38:14;12.93;;;6.75;;
68089;SDS011;54880;50.986;6.990;2023-07-20T06:40:39;17.25;;;7.30;;
68089;SDS011;54880;50.986;6.990;2023-07-20T06:43:04;12.98;;;6.82;;
68089;SDS011;54880;50.986;6.990;2023-07-20T06:45:29;17.27;;;6.97;;
68089;SDS011;54880;50.986;6.990;2023-07-20T06:47:55;15.20;;;7.43;;
68089;SDS011;54880;50.986;6.990;2023-07-20T06:50:20;13.33;;;7.00;;
68089;SDS011;54880;50.986;6.990;2023-07-20T06:52:45;16.53;;;6.13;;
68089;SDS011;54880;50.986;6.990;2023-07-20T06:55:12;14.07;;;6.53;;
68089;SDS011;54880;50.986;6.990;2023-07-20T06:57:38;14.87;;;6.47;;
68089;SDS011;54880;50.986;6.990;2023-07-20T07:00:03;12.35;;;6.65;;
68089;SDS011;54880;50.986;6.990;2023-07-20T07:02:29;11.20;;;6.60;;
68089;SDS011;54880;50.986;6.990;2023-07-20T07:04:54;14.00;;;6.60;;
68089;SDS011;54880;50.986;6.990;2023-07-20T07:07:20;13.10;;;6.47;;
68089;SDS011;54880;50.986;6.990;2023-07-20T07:09:45;14.57;;;7.00;;
68089;SDS011;54880;50.986;6.990;2023-07-20T07:12:11;11.73;;;5.87;;
68089;SDS011;54880;50.986;6.990;2023-07-20T07:14:36;12.93;;;6.57;;
68089;SDS011;54880;50.986;6.990;2023-07-20T07:17:01;11.63;;;6.20;;
68089;SDS011;54880;50.986;6.990;2023-07-20T07:19:26;13.87;;;6.30;;
68089;SDS011;54880;50.986;6.990;2023-07-20T07:21:51;12.67;;;5.93;;
68089;SDS011;54880;50.986;6.990;2023-07-20T07:24:17;11.97;;;6.00;;
68089;SDS011;54880;50.986;6.990;2023-07-20T07:26:42;11.33;;;6.43;;
68089;SDS011;54880;50.986;6.990;2023-07-20T07:29:07;12.03;;;5.00;;
68089;SDS011;54880;50.986;6.990;2023-07-20T07:31:33;13.00;;;5.37;;
68089;SDS011;54880;50.986;6.990;2023-07-20T07:33:59;10.15;;;5.13;;
68089;SDS011;54880;50.986;6.990;2023-07-20T07:36:24;9.37;;;5.33;;
68089;SDS011;54880;50.986;6.990;2023-07-20T07:38:50;9.70;;;4.45;;
68089;SDS011;54880;50.986;6.990;2023-07-20T07:41:15;8.30;;;3.77;;
68089;SDS011;54880;50.986;6.990;2023-07-20T07:43:40;10.20;;;3.97;;
68089;SDS011;54880;50.986;6.990;2023-07-20T07:46:06;7.50;;;3.27;;
68089;SDS011;54880;50.986;6.990;2023-07-20T07:48:31;9.13;;;4.00;;
68089;SDS011;54880;50.986;6.990;2023-07-20T07:50:56;12.07;;;4.50;;
68089;SDS011;54880;50.986;6.990;2023-07-20T07:53:21;7.47;;;4.10;;
68089;SDS011;54880;50.986;6.990;2023-07-20T07:55:47;8.17;;;4.10;;
68089;SDS011;54880;50.986;6.990;2023-07-20T07:58:12;8.87;;;3.90;;
68089;SDS011;54880;50.986;6.990;2023-07-20T08:00:38;9.77;;;3.78;;
68089;SDS011;54880;50.986;6.990;2023-07-20T08:03:04;9.23;;;3.60;;
68089;SDS011;54880;50.986;6.990;2023-07-20T08:05:29;10.33;;;4.70;;
68089;SDS011;54880;50.986;6.990;2023-07-20T08:07:54;7.90;;;4.00;;
68089;SDS011;54880;50.986;6.990;2023-07-20T08:10:19;11.03;;;4.40;;
68089;SDS011;54880;50.986;6.990;2023-07-20T08:12:44;12.13;;;4.60;;
68089;SDS011;54880;50.986;6.990;2023-07-20T08:15:10;8.80;;;4.40;;
68089;SDS011;54880;50.986;6.990;2023-07-20T08:17:36;9.95;;;5.10;;
68089;SDS011;54880;50.986;6.990;2023-07-20T08:20:01;8.93;;;4.47;;
68089;SDS011;54880;50.986;6.990;2023-07-20T08:22:26;10.20;;;4.37;;
68089;SDS011;54880;50.986;6.990;2023-07-20T08:24:51;9.67;;;4.27;;
68089;SDS011;54880;50.986;6.990;2023-07-20T08:27:17;9.60;;;3.93;;
68089;SDS011;54880;50.986;6.990;2023-07-20T08:29:42;7.23;;;2.90;;
68089;SDS011;54880;50.986;6.990;2023-07-20T08:32:07;8.73;;;3.10;;
68089;SDS011;54880;50.986;6.990;2023-07-20T08:34:33;8.57;;;3.08;;
68089;SDS011;54880;50.986;6.990;2023-07-20T08:36:58;10.23;;;2.60;;
68089;SDS011;54880;50.986;6.990;2023-07-20T08:39:24;6.17;;;2.33;;
68089;SDS011;54880;50.986;6.990;2023-07-20T08:41:49;6.93;;;2.63;;
68089;SDS011;54880;50.986;6.990;2023-07-20T08:44:15;8.23;;;2.97;;
68089;SDS011;54880;50.986;6.990;2023-07-20T08:46:40;6.07;;;2.40;;
68089;SDS011;54880;50.986;6.990;2023-07-20T08:49:06;6.93;;;2.70;;
68089;SDS011;54880;50.986;6.990;2023-07-20T08:51:31;7.97;;;2.70;;
68089;SDS011;54880;50.986;6.990;2023-07-20T08:53:58;5.60;;;2.33;;
68089;SDS011;54880;50.986;6.990;2023-07-20T08:56:24;7.20;;;2.37;;
68089;SDS011;54880;50.986;6.990;2023-07-20T08:58:51;6.82;;;2.22;;
68089;SDS011;54880;50.986;6.990;2023-07-20T09:01:17;6.65;;;2.10;;
68089;SDS011;54880;50.986;6.990;2023-07-20T09:03:43;5.68;;;1.67;;
68089;SDS011;54880;50.986;6.990;2023-07-20T09:06:10;6.00;;;1.75;;
68089;SDS011;54880;50.986;6.990;2023-07-20T09:08:37;5.47;;;1.50;;
68089;SDS011;54880;50.986;6.990;2023-07-20T09:11:03;5.20;;;1.90;;
68089;SDS011;54880;50.986;6.990;2023-07-20T09:13:28;5.85;;;2.20;;
68089;SDS011;54880;50.986;6.990;2023-07-20T09:15:54;5.32;;;1.98;;
68089;SDS011;54880;50.986;6.990;2023-07-20T09:18:23;5.07;;;2.00;;
68089;SDS011;54880;50.986;6.990;2023-07-20T09:20:49;6.53;;;2.28;;
68089;SDS011;54880;50.986;6.990;2023-07-20T09:23:14;5.93;;;1.93;;
68089;SDS011;54880;50.986;6.990;2023-07-20T09:25:40;5.63;;;1.80;;
68089;SDS011;54880;50.986;6.990;2023-07-20T09:28:05;5.13;;;1.50;;
68089;SDS011;54880;50.986;6.990;2023-07-20T09:30:30;5.83;;;1.90;;
68089;SDS011;54880;50.986;6.990;2023-07-20T09:32:56;4.83;;;1.70;;
68089;SDS011;54880;50.986;6.990;2023-07-20T09:35:21;6.97;;;1.60;;
68089;SDS011;54880;50.986;6.990;2023-07-20T09:40:14;6.37;;;1.50;;
68089;SDS011;54880;50.986;6.990;2023-07-20T09:42:40;6.30;;;1.67;;
68089;SDS011;54880;50.986;6.990;2023-07-20T09:45:06;5.93;;;1.73;;
68089;SDS011;54880;50.986;6.990;2023-07-20T09:47:33;4.95;;;1.70;;
68089;SDS011;54880;50.986;6.990;2023-07-20T09:50:00;6.03;;;2.33;;
68089;SDS011;54880;50.986;6.990;2023-07-20T09:52:26;6.10;;;2.00;;
68089;SDS011;54880;50.986;6.990;2023-07-20T09:54:51;5.85;;;1.90;;
68089;SDS011;54880;50.986;6.990;2023-07-20T09:57:17;5.78;;;1.63;;
68089;SDS011;54880;50.986;6.990;2023-07-20T09:59:43;6.60;;;2.00;;
68089;SDS011;54880;50.986;6.990;2023-07-20T10:02:11;6.13;;;2.10;;
68089;SDS011;54880;50.986;6.990;2023-07-20T10:04:40;5.00;;;1.70;;
68089;SDS011;54880;50.986;6.990;2023-07-20T10:07:07;4.78;;;1.70;;
68089;SDS011;54880;50.986;6.990;2023-07-20T10:09:37;6.10;;;1.95;;
68089;SDS011;54880;50.986;6.990;2023-07-20T10:12:04;5.53;;;1.80;;
68089;SDS011;54880;50.986;6.990;2023-07-20T10:14:29;5.00;;;1.90;;
68089;SDS011;54880;50.986;6.990;2023-07-20T10:16:57;6.13;;;2.00;;
68089;SDS011;54880;50.986;6.990;2023-07-20T10:19:42;4.90;;;1.75;;
68089;SDS011;54880;50.986;6.990;2023-07-20T10:22:10;5.50;;;1.90;;
68089;SDS011;54880;50.986;6.990;2023-07-20T10:24:36;4.95;;;1.73;;
68089;SDS011;54880;50.986;6.990;2023-07-20T10:27:01;5.38;;;1.65;;
68089;SDS011;54880;50.986;6.990;2023-07-20T10:29:26;6.47;;;1.90;;
68089;SDS011;54880;50.986;6.990;2023-07-20T10:31:53;4.82;;;1.50;;
68089;SDS011;54880;50.986;6.990;2023-07-20T10:34:18;4.88;;;1.80;;
68089;SDS011;54880;50.986;6.990;2023-07-20T10:36:44;4.43;;;1.50;;
68089;SDS011;54880;50.986;6.990;2023-07-20T10:39:26;4.80;;;1.80;;
68089;SDS011;54880;50.986;6.990;2023-07-20T10:42:02;6.97;;;2.13;;
68089;SDS011;54880;50.986;6.990;2023-07-20T10:44:28;5.50;;;1.55;;
68089;SDS011;54880;50.986;6.990;2023-07-20T10:47:00;6.47;;;1.80;;
68089;SDS011;54880;50.986;6.990;2023-07-20T10:49:26;5.65;;;1.73;;
68089;SDS011;54880;50.986;6.990;2023-07-20T10:51:56;7.57;;;1.80;;
68089;SDS011;54880;50.986;6.990;2023-07-20T10:54:33;7.20;;;1.85;;
68089;SDS011;54880;50.986;6.990;2023-07-20T10:59:43;4.70;;;1.50;;
68089;SDS011;54880;50.986;6.990;2023-07-20T11:02:11;6.65;;;1.50;;
68089;SDS011;54880;50.986;6.990;2023-07-20T11:04:43;6.37;;;1.47;;
68089;SDS011;54880;50.986;6.990;2023-07-20T11:07:09;6.35;;;1.65;;
68089;SDS011;54880;50.986;6.990;2023-07-20T11:09:35;4.77;;;1.57;;
68089;SDS011;54880;50.986;6.990;2023-07-20T11:12:11;5.78;;;1.60;;
68089;SDS011;54880;50.986;6.990;2023-07-20T11:14:40;5.05;;;1.50;;
68089;SDS011;54880;50.986;6.990;2023-07-20T11:17:15;7.90;;;1.52;;
68089;SDS011;54880;50.986;6.990;2023-07-20T11:19:43;3.75;;;1.05;;
68089;SDS011;54880;50.986;6.990;2023-07-20T11:22:08;7.27;;;1.23;;
68089;SDS011;54880;50.986;6.990;2023-07-20T11:24:36;4.10;;;1.10;;
68089;SDS011;54880;50.986;6.990;2023-07-20T11:27:03;4.30;;;1.40;;
68089;SDS011;54880;50.986;6.990;2023-07-20T11:29:28;4.30;;;1.20;;
68089;SDS011;54880;50.986;6.990;2023-07-20T11:31:53;5.50;;;1.47;;
68089;SDS011;54880;50.986;6.990;2023-07-20T11:34:20;5.43;;;1.40;;
68089;SDS011;54880;50.986;6.990;2023-07-20T11:36:49;5.65;;;1.30;;
68089;SDS011;54880;50.986;6.990;2023-07-20T11:39:15;6.38;;;1.38;;
68089;SDS011;54880;50.986;6.990;2023-07-20T11:41:46;4.18;;;1.30;;
68089;SDS011;54880;50.986;6.990;2023-07-20T11:44:11;5.38;;;1.50;;
68089;SDS011;54880;50.986;6.990;2023-07-20T11:46:38;4.93;;;1.40;;
68089;SDS011;54880;50.986;6.990;2023-07-20T11:49:04;5.50;;;1.40;;
68089;SDS011;54880;50.986;6.990;2023-07-20T11:51:29;4.80;;;1.47;;
68089;SDS011;54880;50.986;6.990;2023-07-20T11:53:55;4.15;;;1.38;;
68089;SDS011;54880;50.986;6.990;2023-07-20T11:56:20;4.70;;;1.40;;
68089;SDS011;54880;50.986;6.990;2023-07-20T11:58:45;4.53;;;1.40;;
68089;SDS011;54880;50.986;6.990;2023-07-20T12:01:14;5.83;;;1.13;;
68089;SDS011;54880;50.986;6.990;2023-07-20T12:03:40;4.70;;;1.50;;
68089;SDS011;54880;50.986;6.990;2023-07-20T12:06:09;5.10;;;1.45;;
68089;SDS011;54880;50.986;6.990;2023-07-20T12:08:34;4.03;;;1.30;;
68089;SDS011;54880;50.986;6.990;2023-07-20T12:11:02;4.73;;;1.17;;
68089;SDS011;54880;50.986;6.990;2023-07-20T12:16:09;5.77;;;1.50;;
68089;SDS011;54880;50.986;6.990;2023-07-20T12:18:35;6.35;;;1.60;;
68089;SDS011;54880;50.986;6.990;2023-07-20T12:21:01;5.68;;;1.83;;
68089;SDS011;54880;50.986;6.990;2023-07-20T12:23:34;4.60;;;1.60;;
68089;SDS011;54880;50.986;6.990;2023-07-20T12:25:59;5.10;;;1.30;;
68089;SDS011;54880;50.986;6.990;2023-07-20T12:28:24;4.80;;;1.30;;
68089;SDS011;54880;50.986;6.990;2023-07-20T12:30:51;6.25;;;1.35;;
68089;SDS011;54880;50.986;6.990;2023-07-20T12:33:21;4.32;;;1.38;;
68089;SDS011;54880;50.986;6.990;2023-07-20T12:35:46;5.63;;;1.30;;
68089;SDS011;54880;50.986;6.990;2023-07-20T12:38:12;4.40;;;1.43;;
68089;SDS011;54880;50.986;6.990;2023-07-20T12:40:37;4.60;;;1.40;;
68089;SDS011;54880;50.986;6.990;2023-07-20T12:43:02;4.43;;;1.40;;
68089;SDS011;54880;50.986;6.990;2023-07-20T12:45:28;6.05;;;1.20;;
68089;SDS011;54880;50.986;6.990;2023-07-20T12:47:54;5.17;;;1.10;;
68089;SDS011;54880;50.986;6.990;2023-07-20T12:50:19;5.13;;;1.27;;
68089;SDS011;54880;50.986;6.990;2023-07-20T12:52:44;4.40;;;1.40;;
68089;SDS011;54880;50.986;6.990;2023-07-20T12:55:10;6.53;;;1.37;;
68089;SDS011;54880;50.986;6.990;2023-07-20T12:57:35;4.95;;;1.30;;
68089;SDS011;54880;50.986;6.990;2023-07-20T13:00:02;4.37;;;1.23;;
68089;SDS011;54880;50.986;6.990;2023-07-20T13:02:29;6.68;;;1.30;;
68089;SDS011;54880;50.986;6.990;2023-07-20T13:04:54;5.20;;;1.40;;
68089;SDS011;54880;50.986;6.990;2023-07-20T13:07:22;4.38;;;1.50;;
68089;SDS011;54880;50.986;6.990;2023-07-20T13:09:54;4.50;;;1.35;;
68089;SDS011;54880;50.986;6.990;2023-07-20T13:12:19;5.67;;;1.40;;
68089;SDS011;54880;50.986;6.990;2023-07-20T13:14:44;7.87;;;1.90;;
68089;SDS011;54880;50.986;6.990;2023-07-20T13:17:09;4.22;;;1.30;;
68089;SDS011;54880;50.986;6.990;2023-07-20T13:19:35;4.10;;;1.37;;
68089;SDS011;54880;50.986;6.990;2023-07-20T13:22:00;5.00;;;1.50;;
68089;SDS011;54880;50.986;6.990;2023-07-20T13:24:25;4.93;;;1.53;;
68089;SDS011;54880;50.986;6.990;2023-07-20T13:26:51;5.00;;;1.70;;
68089;SDS011;54880;50.986;6.990;2023-07-20T13:29:16;4.60;;;1.50;;
68089;SDS011;54880;50.986;6.990;2023-07-20T13:31:42;6.38;;;1.50;;
68089;SDS011;54880;50.986;6.990;2023-07-20T13:34:07;5.57;;;1.47;;
68089;SDS011;54880;50.986;6.990;2023-07-20T13:36:32;7.10;;;1.80;;
68089;SDS011;54880;50.986;6.990;2023-07-20T13:38:58;5.70;;;1.50;;
68089;SDS011;54880;50.986;6.990;2023-07-20T13:41:23;5.37;;;1.60;;
68089;SDS011;54880;50.986;6.990;2023-07-20T13:43:48;4.17;;;1.20;;
68089;SDS011;54880;50.986;6.990;2023-07-20T13:46:13;5.43;;;1.30;;
68089;SDS011;54880;50.986;6.990;2023-07-20T13:48:39;6.23;;;1.50;;
68089;SDS011;54880;50.986;6.990;2023-07-20T13:51:04;6.33;;;1.53;;
68089;SDS011;54880;50.986;6.990;2023-07-20T13:53:29;5.67;;;1.60;;
68089;SDS011;54880;50.986;6.990;2023-07-20T13:55:55;5.13;;;1.20;;
68089;SDS011;54880;50.986;6.990;2023-07-20T13:58:21;4.53;;;1.45;;
68089;SDS011;54880;50.986;6.990;2023-07-20T14:00:46;7.23;;;1.70;;
68089;SDS011;54880;50.986;6.990;2023-07-20T14:03:12;4.30;;;1.48;;
68089;SDS011;54880;50.986;6.990;2023-07-20T14:05:37;6.93;;;2.08;;
68089;SDS011;54880;50.986;6.990;2023-07-20T14:08:02;6.53;;;1.60;;
68089;SDS011;54880;50.986;6.990;2023-07-20T14:10:28;5.23;;;1.40;;
68089;SDS011;54880;50.986;6.990;2023-07-20T14:12:53;6.10;;;1.90;;
68089;SDS011;54880;50.986;6.990;2023-07-20T14:15:18;7.07;;;1.50;;
68089;SDS011;54880;50.986;6.990;2023-07-20T14:17:45;4.78;;;1.30;;
68089;SDS011;54880;50.986;6.990;2023-07-20T14:20:10;6.73;;;2.00;;
68089;SDS011;54880;50.986;6.990;2023-07-20T14:22:35;5.73;;;1.60;;
68089;SDS011;54880;50.986;6.990;2023-07-20T14:25:01;5.43;;;1.50;;
68089;SDS011;54880;50.986;6.990;2023-07-20T14:27:26;5.73;;;1.57;;
68089;SDS011;54880;50.986;6.990;2023-07-20T14:29:51;3.83;;;1.20;;
68089;SDS011;54880;50.986;6.990;2023-07-20T14:32:18;4.80;;;1.58;;
68089;SDS011;54880;50.986;6.990;2023-07-20T14:34:43;7.90;;;1.60;;
68089;SDS011;54880;50.986;6.990;2023-07-20T14:37:08;5.70;;;1.90;;
68089;SDS011;54880;50.986;6.990;2023-07-20T14:39:34;5.03;;;1.67;;
68089;SDS011;54880;50.986;6.990;2023-07-20T14:41:59;6.47;;;1.40;;
68089;SDS011;54880;50.986;6.990;2023-07-20T14:44:24;5.47;;;1.60;;
68089;SDS011;54880;50.986;6.990;2023-07-20T14:46:49;5.37;;;1.63;;
68089;SDS011;54880;50.986;6.990;2023-07-20T14:49:15;5.33;;;1.47;;
68089;SDS011;54880;50.986;6.990;2023-07-20T14:51:40;6.53;;;1.60;;
68089;SDS011;54880;50.986;6.990;2023-07-20T14:54:11;5.20;;;1.20;;
68089;SDS011;54880;50.986;6.990;2023-07-20T14:56:37;6.00;;;1.50;;